Time;durP1;ratioP1;P1;durP2;ratioP2;P2;SDS_P1;SDS_P2;PMS_P1;PMS_P2;Temp;Humidity;BMP_temperature;BMP_pressure;BME280_temperature;BME280_humidity;BME280_pressure;Samples;Min_cycle;Max_cycle;Signal;HPM_P1;HPM_P2
2021/08/28 00:02:23;;;;;;;10.95;9.30;;;16.30;99.90;;;;;;6125042;23;20164;-74
2021/08/28 00:04:51;;;;;;;14.48;8.65;;;16.20;99.90;;;;;;6124352;23;20536;-73
2021/08/28 00:07:19;;;;;;;9.45;7.45;;;16.20;99.90;;;;;;6126084;23;20981;-73
2021/08/28 00:09:46;;;;;;;17.60;8.32;;;16.30;99.90;;;;;;6126633;23;20197;-74
2021/08/28 00:12:13;;;;;;;10.45;6.75;;;16.20;99.90;;;;;;6126378;23;20166;-73
2021/08/28 00:14:40;;;;;;;11.07;8.57;;;16.20;99.90;;;;;;6125663;23;20476;-73
2021/08/28 00:17:08;;;;;;;9.55;7.35;;;16.30;99.90;;;;;;6125875;23;20206;-74
2021/08/28 00:19:35;;;;;;;9.80;8.80;;;16.20;99.90;;;;;;6126383;23;20214;-74
2021/08/28 00:22:02;;;;;;;12.00;9.27;;;16.20;99.90;;;;;;6125929;23;20166;-73
2021/08/28 00:24:31;;;;;;;14.23;9.40;;;16.20;99.90;;;;;;6125870;23;20163;-73
2021/08/28 00:26:58;;;;;;;11.18;8.85;;;16.20;99.90;;;;;;6126378;23;20202;-72
2021/08/28 00:29:25;;;;;;;12.88;10.60;;;16.20;99.90;;;;;;6127003;23;20493;-72
2021/08/28 00:31:52;;;;;;;13.85;10.98;;;16.20;99.90;;;;;;6126651;23;20163;-75
2021/08/28 00:34:20;;;;;;;14.57;12.63;;;16.20;99.90;;;;;;6125495;23;20245;-75
2021/08/28 00:36:47;;;;;;;16.10;10.57;;;16.20;99.90;;;;;;6126494;23;20198;-74
2021/08/28 00:39:14;;;;;;;14.93;9.88;;;16.20;99.90;;;;;;6126055;23;20163;-74
2021/08/28 00:41:43;;;;;;;12.82;10.43;;;16.20;99.90;;;;;;6126495;23;20164;-74
2021/08/28 00:44:10;;;;;;;12.43;10.48;;;16.20;99.90;;;;;;6125885;23;20176;-75
2021/08/28 00:46:37;;;;;;;15.80;13.15;;;16.20;99.90;;;;;;6125940;23;20201;-73
2021/08/28 00:49:04;;;;;;;14.48;11.60;;;16.20;99.90;;;;;;6126017;23;20190;-73
2021/08/28 00:51:38;;;;;;;13.40;11.88;;;16.20;99.90;;;;;;6126051;23;20170;-73
2021/08/28 00:54:05;;;;;;;14.25;11.25;;;16.20;99.90;;;;;;6125666;23;20167;-73
2021/08/28 00:56:34;;;;;;;17.42;13.23;;;16.20;99.90;;;;;;6125819;23;20277;-73
2021/08/28 00:59:03;;;;;;;16.13;13.05;;;16.20;99.90;;;;;;6126549;23;20197;-73
2021/08/28 01:01:35;;;;;;;14.87;10.60;;;16.20;99.90;;;;;;6126661;23;20168;-74
2021/08/28 01:04:04;;;;;;;18.48;13.48;;;16.20;99.90;;;;;;6125711;23;20422;-73
2021/08/28 01:06:41;;;;;;;14.63;10.95;;;16.20;99.90;;;;;;6126737;23;20203;-73
2021/08/28 01:09:15;;;;;;;16.13;13.43;;;16.10;99.90;;;;;;6129141;23;20186;-73
2021/08/28 01:11:48;;;;;;;16.08;12.10;;;16.20;99.90;;;;;;6126434;23;20253;-73
2021/08/28 01:14:20;;;;;;;21.95;14.00;;;16.20;99.90;;;;;;6125796;23;20189;-74
2021/08/28 01:16:51;;;;;;;18.30;14.02;;;16.20;99.90;;;;;;6125991;23;20207;-73
2021/08/28 01:19:33;;;;;;;16.85;14.10;;;16.20;99.90;;;;;;6126475;23;20548;-74
2021/08/28 01:22:02;;;;;;;18.70;13.55;;;16.20;99.90;;;;;;6125676;23;20166;-73
2021/08/28 01:24:31;;;;;;;14.32;12.82;;;16.20;99.90;;;;;;6125923;23;20215;-73
2021/08/28 01:27:02;;;;;;;18.63;13.02;;;16.10;99.90;;;;;;6126458;23;20198;-73
2021/08/28 01:29:33;;;;;;;17.33;11.65;;;16.10;99.90;;;;;;6125951;23;20213;-72
2021/08/28 01:32:01;;;;;;;16.23;13.30;;;16.10;99.90;;;;;;6125890;23;20527;-72
2021/08/28 01:34:31;;;;;;;13.70;10.88;;;16.20;99.90;;;;;;6125461;23;20179;-74
2021/08/28 01:37:00;;;;;;;16.80;11.52;;;16.10;99.90;;;;;;6126075;23;20234;-74
2021/08/28 01:39:28;;;;;;;15.93;12.13;;;16.20;99.90;;;;;;6125422;23;20163;-73
2021/08/28 01:41:58;;;;;;;11.35;10.25;;;16.10;99.90;;;;;;6126289;23;20171;-74
2021/08/28 01:44:26;;;;;;;17.08;11.95;;;16.20;99.90;;;;;;6124725;23;20169;-74
2021/08/28 01:46:55;;;;;;;18.30;13.32;;;16.20;99.90;;;;;;6126251;23;20225;-74
2021/08/28 01:49:23;;;;;;;16.27;12.38;;;16.20;99.90;;;;;;6125652;23;20271;-75
2021/08/28 01:51:52;;;;;;;14.55;12.45;;;16.20;99.90;;;;;;6125690;23;20170;-75
2021/08/28 01:54:19;;;;;;;13.65;10.43;;;16.20;99.90;;;;;;6125205;23;20166;-74
2021/08/28 01:56:47;;;;;;;16.00;11.65;;;16.20;99.90;;;;;;6125743;23;20201;-74
2021/08/28 01:59:14;;;;;;;12.20;10.82;;;16.20;99.90;;;;;;6125455;23;20510;-74
2021/08/28 02:01:42;;;;;;;15.15;12.25;;;16.20;99.90;;;;;;6126129;23;20218;-74
2021/08/28 02:04:10;;;;;;;13.60;10.93;;;16.20;99.90;;;;;;6125051;23;20168;-74
2021/08/28 02:06:45;;;;;;;14.52;10.15;;;16.20;99.90;;;;;;6125361;23;20666;-74
2021/08/28 02:09:20;;;;;;;14.18;9.80;;;16.30;99.90;;;;;;6125610;23;20669;-74
2021/08/28 02:11:57;;;;;;;12.20;8.80;;;16.30;99.90;;;;;;6125892;23;20167;-73
2021/08/28 02:14:30;;;;;;;10.48;9.38;;;16.30;99.90;;;;;;6099033;23;20266;-74
2021/08/28 02:16:59;;;;;;;10.95;9.23;;;16.30;99.90;;;;;;6125483;23;20206;-74
2021/08/28 02:19:31;;;;;;;10.45;9.35;;;16.30;99.90;;;;;;6123980;23;20266;-74
2021/08/28 02:22:03;;;;;;;10.73;9.63;;;16.30;99.90;;;;;;6125660;23;20178;-74
2021/08/28 02:24:33;;;;;;;11.10;9.85;;;16.30;99.90;;;;;;6125113;23;20170;-74
2021/08/28 02:27:06;;;;;;;10.55;9.40;;;16.30;99.90;;;;;;6125424;23;20310;-73
2021/08/28 02:29:37;;;;;;;9.27;7.60;;;16.30;99.90;;;;;;6125789;23;20208;-73
2021/08/28 02:32:06;;;;;;;8.88;8.07;;;16.30;99.90;;;;;;6126208;23;20170;-73
2021/08/28 02:34:38;;;;;;;18.13;10.52;;;16.30;99.90;;;;;;6125231;23;20197;-72
2021/08/28 02:37:06;;;;;;;8.05;7.25;;;16.30;99.90;;;;;;6125259;23;20214;-74
2021/08/28 02:39:35;;;;;;;9.27;8.32;;;16.40;99.90;;;;;;6125594;23;20643;-73
2021/08/28 02:42:03;;;;;;;9.65;8.75;;;16.30;99.90;;;;;;6125820;23;20171;-74
2021/08/28 02:44:33;;;;;;;10.05;8.00;;;16.30;99.90;;;;;;6125113;23;20598;-73
2021/08/28 02:47:02;;;;;;;9.55;8.20;;;16.30;99.90;;;;;;6125508;23;20215;-73
2021/08/28 02:49:31;;;;;;;9.77;8.88;;;16.30;99.90;;;;;;6124394;23;20645;-74
2021/08/28 02:52:01;;;;;;;8.55;7.65;;;16.30;99.90;;;;;;6126152;23;20246;-72
2021/08/28 02:54:30;;;;;;;7.93;7.18;;;16.30;99.90;;;;;;6125355;23;20177;-74
2021/08/28 02:56:59;;;;;;;8.00;7.03;;;16.30;99.90;;;;;;6125577;23;20202;-74
2021/08/28 02:59:27;;;;;;;8.05;6.65;;;16.20;99.90;;;;;;6125300;23;20170;-74
2021/08/28 03:01:54;;;;;;;8.07;7.28;;;16.20;99.90;;;;;;6125138;23;20500;-73
2021/08/28 03:04:25;;;;;;;6.63;5.82;;;16.20;99.90;;;;;;6124783;23;20169;-74
2021/08/28 03:06:53;;;;;;;7.53;6.82;;;16.20;99.90;;;;;;6125556;23;20203;-74
2021/08/28 03:09:22;;;;;;;10.88;7.80;;;16.10;99.90;;;;;;6126322;23;20193;-73
2021/08/28 03:11:50;;;;;;;8.07;7.38;;;16.20;99.90;;;;;;6126079;23;20167;-74
2021/08/28 03:14:17;;;;;;;9.50;8.20;;;16.20;99.90;;;;;;6125208;23;20270;-74
2021/08/28 03:16:51;;;;;;;8.07;6.78;;;16.10;99.90;;;;;;6125386;23;20265;-74
2021/08/28 03:19:22;;;;;;;8.77;7.97;;;16.20;99.90;;;;;;6125189;23;20169;-74
2021/08/28 03:21:54;;;;;;;9.68;8.52;;;16.20;99.90;;;;;;6125440;23;20250;-74
2021/08/28 03:24:26;;;;;;;9.93;8.93;;;16.20;99.90;;;;;;6125650;23;20254;-74
2021/08/28 03:26:55;;;;;;;11.20;9.40;;;16.20;99.90;;;;;;6125419;23;20205;-75
2021/08/28 03:29:23;;;;;;;10.57;9.57;;;16.20;99.90;;;;;;6125337;23;20182;-74
2021/08/28 03:31:53;;;;;;;15.32;9.68;;;16.20;99.90;;;;;;6125700;23;20165;-74
2021/08/28 03:34:22;;;;;;;12.13;10.25;;;16.10;99.90;;;;;;6124661;23;20174;-72
2021/08/28 03:36:56;;;;;;;15.93;10.00;;;16.10;99.90;;;;;;6125855;23;20202;-74
2021/08/28 03:39:25;;;;;;;11.35;9.95;;;16.10;99.90;;;;;;6127300;23;20159;-73
2021/08/28 03:41:53;;;;;;;15.05;11.13;;;16.20;99.90;;;;;;6127870;23;20162;-73
2021/08/28 03:44:20;;;;;;;10.07;9.10;;;16.10;99.90;;;;;;6126558;23;20487;-74
2021/08/28 03:46:49;;;;;;;13.80;10.82;;;16.10;99.90;;;;;;6127253;23;20553;-74
2021/08/28 03:49:16;;;;;;;12.65;11.38;;;16.10;99.90;;;;;;6127544;23;20282;-74
2021/08/28 03:51:46;;;;;;;12.23;10.95;;;16.10;99.90;;;;;;6127467;23;20489;-74
2021/08/28 03:54:13;;;;;;;10.85;9.77;;;16.00;99.90;;;;;;6126923;23;20209;-73
2021/08/28 03:56:43;;;;;;;11.32;10.23;;;16.00;99.90;;;;;;6127305;23;20205;-73
2021/08/28 03:59:10;;;;;;;11.73;10.30;;;16.10;99.90;;;;;;6127928;23;20162;-73
2021/08/28 04:01:37;;;;;;;14.63;12.48;;;16.10;99.90;;;;;;6127005;23;20162;-73
2021/08/28 04:04:04;;;;;;;10.75;9.25;;;16.10;99.90;;;;;;6126418;23;20162;-72
2021/08/28 04:06:32;;;;;;;11.23;9.02;;;16.10;99.90;;;;;;6126300;23;20283;-72
2021/08/28 04:09:00;;;;;;;10.00;9.00;;;16.10;99.90;;;;;;6127498;23;20184;-73
2021/08/28 04:11:27;;;;;;;16.80;11.13;;;16.10;99.90;;;;;;6127002;23;20508;-73
2021/08/28 04:13:56;;;;;;;15.35;9.45;;;16.00;99.90;;;;;;6126542;23;20187;-73
2021/08/28 04:16:23;;;;;;;10.70;9.60;;;16.00;99.90;;;;;;6126515;23;20205;-73
2021/08/28 04:18:50;;;;;;;13.40;9.45;;;16.00;99.90;;;;;;6126514;23;20515;-73
2021/08/28 04:21:19;;;;;;;13.63;10.23;;;16.00;99.90;;;;;;6127027;23;20163;-72
2021/08/28 04:23:46;;;;;;;12.05;10.15;;;16.00;99.90;;;;;;6126373;23;20171;-73
2021/08/28 04:26:13;;;;;;;10.43;9.27;;;15.90;99.90;;;;;;6126776;23;20681;-73
2021/08/28 04:28:40;;;;;;;12.32;9.50;;;15.90;99.90;;;;;;6126992;23;20189;-73
2021/08/28 04:31:09;;;;;;;12.48;10.85;;;15.90;99.90;;;;;;6127003;23;20166;-74
2021/08/28 04:33:36;;;;;;;12.38;9.75;;;15.90;99.90;;;;;;6126569;23;20166;-73
2021/08/28 04:36:03;;;;;;;9.63;8.73;;;15.90;99.90;;;;;;6126388;23;20688;-72
2021/08/28 04:38:31;;;;;;;9.80;8.80;;;16.00;99.90;;;;;;6127355;23;20163;-73
2021/08/28 04:40:59;;;;;;;11.43;10.32;;;16.00;99.90;;;;;;6126773;23;20198;-72
2021/08/28 04:43:26;;;;;;;12.70;9.10;;;16.00;99.90;;;;;;6126722;23;20167;-73
2021/08/28 04:45:53;;;;;;;11.07;8.30;;;16.00;99.90;;;;;;6126172;23;20556;-73
2021/08/28 04:48:22;;;;;;;11.90;9.70;;;16.00;99.90;;;;;;6126678;23;20242;-73
2021/08/28 04:50:49;;;;;;;11.70;9.98;;;16.00;99.90;;;;;;6126617;23;20493;-73
2021/08/28 04:53:16;;;;;;;12.18;9.68;;;16.00;99.90;;;;;;6126806;23;20184;-73
2021/08/28 04:55:45;;;;;;;17.15;9.55;;;16.10;99.90;;;;;;6125957;23;20672;-72
2021/08/28 04:58:12;;;;;;;11.82;9.20;;;16.10;99.90;;;;;;6126663;23;20173;-72
2021/08/28 05:00:39;;;;;;;12.27;10.20;;;16.10;99.90;;;;;;6126662;23;20244;-72
2021/08/28 05:03:06;;;;;;;8.77;7.80;;;16.10;99.90;;;;;;6126405;23;20164;-72
2021/08/28 05:05:35;;;;;;;10.90;8.57;;;16.10;99.90;;;;;;6125834;23;20201;-72
2021/08/28 05:08:02;;;;;;;8.93;8.13;;;16.20;99.90;;;;;;6126102;23;20169;-73
2021/08/28 05:10:29;;;;;;;9.85;8.55;;;16.20;99.90;;;;;;6126658;23;20183;-72
2021/08/28 05:12:56;;;;;;;13.77;9.30;;;16.20;99.90;;;;;;6126747;23;20189;-72
2021/08/28 05:15:23;;;;;;;8.80;7.68;;;16.20;99.90;;;;;;6125352;23;20198;-73
2021/08/28 05:17:51;;;;;;;15.57;9.98;;;16.20;99.90;;;;;;6127480;23;20170;-73
2021/08/28 05:20:18;;;;;;;9.77;8.73;;;16.30;99.90;;;;;;6125264;23;20175;-74
2021/08/28 05:22:46;;;;;;;12.05;10.23;;;16.30;99.90;;;;;;6126071;23;20271;-73
2021/08/28 05:25:14;;;;;;;9.68;8.68;;;16.40;99.90;;;;;;6125770;23;20199;-73
2021/08/28 05:27:41;;;;;;;11.43;9.20;;;16.40;99.90;;;;;;6126112;23;20761;-74
2021/08/28 05:30:08;;;;;;;11.70;10.05;;;16.40;99.90;;;;;;6126879;23;20275;-74
2021/08/28 05:32:35;;;;;;;10.80;9.70;;;16.40;99.90;;;;;;6126503;23;20167;-73
2021/08/28 05:35:03;;;;;;;11.68;10.50;;;16.40;99.90;;;;;;6125311;23;20174;-74
2021/08/28 05:37:30;;;;;;;11.63;10.48;;;16.40;99.90;;;;;;6126048;23;20163;-73
2021/08/28 05:39:59;;;;;;;11.82;10.63;;;16.40;99.90;;;;;;6126394;23;20169;-73
2021/08/28 05:42:27;;;;;;;9.30;8.40;;;16.50;99.90;;;;;;6126240;23;20216;-73
2021/08/28 05:44:54;;;;;;;12.85;9.55;;;16.60;99.90;;;;;;6125438;23;20177;-73
2021/08/28 05:47:21;;;;;;;11.05;8.98;;;16.60;99.90;;;;;;6126532;23;20197;-73
2021/08/28 05:49:57;;;;;;;11.32;10.18;;;16.60;99.90;;;;;;6125499;23;20230;-74
2021/08/28 05:52:33;;;;;;;13.50;9.33;;;16.70;99.90;;;;;;6127069;23;20160;-78
2021/08/28 05:55:10;;;;;;;11.35;9.77;;;16.70;99.90;;;;;;6125722;23;20403;-74
2021/08/28 05:57:40;;;;;;;10.32;9.23;;;16.80;99.90;;;;;;6127209;23;20218;-75
2021/08/28 06:00:08;;;;;;;12.93;9.30;;;16.90;99.90;;;;;;6126219;23;20247;-73
2021/08/28 06:02:37;;;;;;;11.50;10.07;;;16.90;99.90;;;;;;6125408;23;20609;-73
2021/08/28 06:05:06;;;;;;;10.55;9.45;;;16.90;99.90;;;;;;6124762;23;20257;-73
2021/08/28 06:07:34;;;;;;;12.23;9.60;;;16.90;99.90;;;;;;6126004;23;20174;-72
2021/08/28 06:10:05;;;;;;;11.37;10.17;;;17.00;99.90;;;;;;6125469;23;20188;-74
2021/08/28 06:12:33;;;;;;;9.10;8.20;;;17.10;99.90;;;;;;6126214;23;20514;-73
2021/08/28 06:15:00;;;;;;;10.40;8.70;;;17.20;99.90;;;;;;6124925;23;20499;-73
2021/08/28 06:17:28;;;;;;;13.87;10.20;;;17.30;99.90;;;;;;6124799;23;20164;-74
2021/08/28 06:19:55;;;;;;;11.23;8.93;;;17.40;99.90;;;;;;6125897;23;20488;-73
2021/08/28 06:22:22;;;;;;;9.53;8.73;;;17.70;99.90;;;;;;6125224;23;20880;-73
2021/08/28 06:24:50;;;;;;;11.63;7.80;;;17.80;99.90;;;;;;6125283;23;20484;-74
2021/08/28 06:27:18;;;;;;;9.97;8.07;;;17.90;99.90;;;;;;6125041;23;20837;-73
2021/08/28 06:29:45;;;;;;;9.57;8.40;;;17.90;99.90;;;;;;6125424;23;20948;-73
2021/08/28 06:32:13;;;;;;;8.87;7.97;;;17.90;99.90;;;;;;6124869;23;20471;-74
2021/08/28 06:34:40;;;;;;;9.33;8.30;;;18.00;99.90;;;;;;6124111;23;20485;-74
2021/08/28 06:37:07;;;;;;;14.67;10.70;;;18.10;99.90;;;;;;6125023;23;20452;-74
2021/08/28 06:39:34;;;;;;;11.27;10.03;;;17.90;99.90;;;;;;6125709;23;20887;-74
2021/08/28 06:42:02;;;;;;;11.63;10.07;;;17.90;99.90;;;;;;6124767;23;20444;-74
2021/08/28 06:44:31;;;;;;;13.07;10.07;;;17.80;99.90;;;;;;6124581;23;20444;-74
2021/08/28 06:46:58;;;;;;;13.40;12.00;;;17.70;99.90;;;;;;6125550;23;20429;-73
2021/08/28 06:49:25;;;;;;;12.83;11.47;;;17.60;99.90;;;;;;6125825;23;20469;-73
2021/08/28 06:51:53;;;;;;;16.33;12.67;;;17.50;99.90;;;;;;6125197;23;20515;-74
2021/08/28 06:54:21;;;;;;;16.10;10.95;;;17.40;99.90;;;;;;6124791;23;21265;-73
2021/08/28 06:56:48;;;;;;;12.77;11.47;;;17.40;99.90;;;;;;6125108;23;20196;-74
2021/08/28 06:59:16;;;;;;;13.23;11.93;;;17.40;99.90;;;;;;6125082;23;20470;-74
2021/08/28 07:01:44;;;;;;;14.27;11.87;;;17.40;99.90;;;;;;6124836;23;20394;-73
2021/08/28 07:04:12;;;;;;;11.45;10.25;;;17.40;99.90;;;;;;6125100;23;20564;-73
2021/08/28 07:06:39;;;;;;;13.27;11.15;;;17.40;99.90;;;;;;6125147;23;20207;-73
2021/08/28 07:09:10;;;;;;;12.40;11.10;;;17.40;99.90;;;;;;6125557;23;20168;-73
2021/08/28 07:11:37;;;;;;;13.48;12.05;;;17.40;99.90;;;;;;6125200;23;20389;-73
2021/08/28 07:14:05;;;;;;;13.40;12.05;;;17.40;99.90;;;;;;6124587;23;20680;-73
2021/08/28 07:16:32;;;;;;;14.32;12.32;;;17.40;99.90;;;;;;6124883;23;20204;-73
2021/08/28 07:19:00;;;;;;;12.40;11.15;;;17.50;99.90;;;;;;6124427;23;20161;-72
2021/08/28 07:21:28;;;;;;;12.70;10.85;;;17.50;99.90;;;;;;6125671;23;20174;-73
2021/08/28 07:23:55;;;;;;;14.07;12.55;;;17.50;99.90;;;;;;6124514;23;20164;-74
2021/08/28 07:26:23;;;;;;;13.93;11.43;;;17.60;99.90;;;;;;6124946;23;20584;-75
2021/08/28 07:28:50;;;;;;;11.30;10.20;;;17.60;99.90;;;;;;6124777;23;20395;-74
2021/08/28 07:31:18;;;;;;;17.17;13.23;;;17.70;99.90;;;;;;6124395;23;20437;-74
2021/08/28 07:33:45;;;;;;;14.90;12.23;;;17.90;99.90;;;;;;6122859;23;20547;-75
2021/08/28 07:36:14;;;;;;;12.60;11.30;;;18.00;99.90;;;;;;6125489;23;20468;-75
2021/08/28 07:38:41;;;;;;;14.07;11.87;;;18.10;99.90;;;;;;6125090;23;20391;-74
2021/08/28 07:41:10;;;;;;;11.47;9.90;;;18.40;99.90;;;;;;6124823;23;20484;-75
2021/08/28 07:43:42;;;;;;;11.10;9.93;;;18.70;99.90;;;;;;6123827;23;20421;-73
2021/08/28 07:46:10;;;;;;;11.33;10.27;;;18.80;99.90;;;;;;6123891;23;20432;-73
2021/08/28 07:48:37;;;;;;;10.20;8.40;;;18.90;99.90;;;;;;6124078;23;20881;-75
2021/08/28 07:51:04;;;;;;;11.13;9.23;;;19.00;99.90;;;;;;6124795;23;20516;-74
2021/08/28 07:53:35;;;;;;;11.00;9.20;;;19.00;99.90;;;;;;6125020;23;20412;-75
2021/08/28 07:56:02;;;;;;;13.20;9.87;;;18.90;99.90;;;;;;6124676;23;20436;-72
2021/08/28 07:58:30;;;;;;;11.50;9.33;;;18.90;99.90;;;;;;6125465;23;20426;-75
2021/08/28 08:00:58;;;;;;;10.60;8.80;;;18.90;99.90;;;;;;6125265;23;20428;-73
2021/08/28 08:03:26;;;;;;;10.40;8.03;;;18.90;99.90;;;;;;6125902;23;20404;-75
2021/08/28 08:05:53;;;;;;;9.13;8.10;;;19.10;99.90;;;;;;6125039;23;20437;-75
2021/08/28 08:08:20;;;;;;;9.83;8.10;;;19.20;99.90;;;;;;6124466;23;20421;-74
2021/08/28 08:10:49;;;;;;;8.70;7.67;;;19.20;99.90;;;;;;6124238;23;20508;-74
2021/08/28 08:13:16;;;;;;;9.40;6.80;;;19.30;99.90;;;;;;6123443;23;20424;-78
2021/08/28 08:15:45;;;;;;;13.93;7.50;;;19.20;99.90;;;;;;6123243;23;20429;-75
2021/08/28 08:18:12;;;;;;;8.67;7.77;;;19.20;99.90;;;;;;6123187;23;20470;-73
2021/08/28 08:20:40;;;;;;;8.10;7.13;;;19.20;99.90;;;;;;6122420;23;20386;-75
2021/08/28 08:23:08;;;;;;;11.50;8.67;;;19.10;99.90;;;;;;6124133;23;20405;-74
2021/08/28 08:25:35;;;;;;;11.77;7.70;;;19.10;99.90;;;;;;6124293;23;20440;-74
2021/08/28 08:28:04;;;;;;;8.93;7.40;;;19.10;99.90;;;;;;6125431;23;20496;-76
2021/08/28 08:30:31;;;;;;;11.13;8.10;;;19.20;99.90;;;;;;6124717;23;20436;-73
2021/08/28 08:32:58;;;;;;;8.27;6.70;;;19.20;99.90;;;;;;6126441;23;20497;-74
2021/08/28 08:35:26;;;;;;;7.67;6.93;;;19.50;99.90;;;;;;6125221;23;20447;-74
2021/08/28 08:37:57;;;;;;;9.10;6.70;;;19.90;99.90;;;;;;6127105;23;20618;-75
2021/08/28 08:40:26;;;;;;;7.17;6.00;;;20.20;99.90;;;;;;6128154;23;20394;-75
2021/08/28 08:42:55;;;;;;;7.50;6.33;;;20.20;99.90;;;;;;6128133;23;20885;-76
2021/08/28 08:45:26;;;;;;;8.80;7.90;;;20.00;99.90;;;;;;6127562;23;20512;-76
2021/08/28 08:47:54;;;;;;;9.20;7.10;;;19.90;99.90;;;;;;6127208;23;20591;-76
2021/08/28 08:50:22;;;;;;;11.30;8.27;;;19.60;99.90;;;;;;6127154;23;20452;-75
2021/08/28 08:52:55;;;;;;;8.30;7.20;;;19.40;99.90;;;;;;6127439;23;20438;-76
2021/08/28 08:55:22;;;;;;;12.10;8.00;;;19.40;99.90;;;;;;6126606;23;20512;-76
2021/08/28 08:57:51;;;;;;;7.67;6.77;;;19.30;99.90;;;;;;6126676;23;20398;-76
2021/08/28 09:00:19;;;;;;;7.73;6.73;;;19.20;99.90;;;;;;6126833;23;20390;-78
2021/08/28 09:02:47;;;;;;;8.10;6.20;;;19.30;99.90;;;;;;6128021;23;20440;-77
2021/08/28 09:05:15;;;;;;;8.53;6.90;;;19.30;99.90;;;;;;6126989;23;20750;-80
2021/08/28 09:07:43;;;;;;;8.63;7.60;;;19.20;99.90;;;;;;6128392;23;20382;-78
2021/08/28 09:10:13;;;;;;;9.53;7.13;;;19.10;99.90;;;;;;6127556;23;20493;-76
2021/08/28 09:12:43;;;;;;;9.80;7.30;;;19.10;99.90;;;;;;6128337;23;20421;-76
2021/08/28 09:15:13;;;;;;;8.10;6.07;;;19.20;99.90;;;;;;6129504;23;20435;-76
2021/08/28 09:17:42;;;;;;;9.90;7.00;;;19.70;99.90;;;;;;6127590;23;20444;-75
2021/08/28 09:20:21;;;;;;;6.67;5.67;;;20.20;99.90;;;;;;6128028;23;20417;-75
2021/08/28 09:22:49;;;;;;;10.87;7.53;;;20.50;99.90;;;;;;6128124;23;20398;-77
2021/08/28 09:25:23;;;;;;;8.27;6.13;;;20.60;99.90;;;;;;6126795;23;20512;-77
2021/08/28 09:27:51;;;;;;;6.70;5.17;;;20.60;99.90;;;;;;6127607;23;20393;-76
2021/08/28 09:30:24;;;;;;;10.27;4.83;;;20.40;99.90;;;;;;6134002;23;20429;-77
2021/08/28 09:32:54;;;;;;;5.83;5.27;;;20.20;99.90;;;;;;6127036;23;20401;-77
2021/08/28 09:35:27;;;;;;;6.63;5.43;;;19.90;99.90;;;;;;6125918;23;20508;-77
2021/08/28 09:37:56;;;;;;;6.40;5.67;;;19.70;99.90;;;;;;6126699;23;20428;-78
2021/08/28 09:40:29;;;;;;;5.67;5.07;;;19.50;99.90;;;;;;6127145;23;20390;-78
2021/08/28 09:42:58;;;;;;;5.20;4.50;;;19.40;99.90;;;;;;6126850;23;20402;-79
2021/08/28 09:45:26;;;;;;;7.63;5.20;;;19.40;99.90;;;;;;6126859;23;20429;-78
2021/08/28 09:47:55;;;;;;;5.67;4.27;;;19.60;99.90;;;;;;6126466;23;20413;-78
2021/08/28 09:50:33;;;;;;;4.50;3.73;;;19.60;99.90;;;;;;6126127;23;20441;-78
2021/08/28 09:53:05;;;;;;;4.60;3.97;;;19.60;99.90;;;;;;6126585;23;20485;-77
2021/08/28 09:55:34;;;;;;;4.63;3.90;;;19.50;99.90;;;;;;6125130;23;20433;-77
2021/08/28 09:58:02;;;;;;;5.10;4.50;;;19.30;99.90;;;;;;6125819;23;20408;-77
2021/08/28 10:00:41;;;;;;;4.63;3.30;;;19.20;99.90;;;;;;6125944;23;20394;-76
2021/08/28 10:03:08;;;;;;;4.27;2.70;;;19.00;99.90;;;;;;6125373;23;20393;-76
2021/08/28 10:05:38;;;;;;;3.50;3.00;;;19.00;99.90;;;;;;6124022;23;20436;-74
2021/08/28 10:08:07;;;;;;;2.97;2.37;;;19.00;99.90;;;;;;6125887;23;20400;-75
2021/08/28 10:10:37;;;;;;;3.90;2.23;;;19.00;99.90;;;;;;6125536;23;20447;-73
2021/08/28 10:13:06;;;;;;;6.00;3.40;;;19.00;99.90;;;;;;6125800;23;20827;-74
2021/08/28 10:15:36;;;;;;;4.20;3.57;;;19.10;99.90;;;;;;6125145;23;20429;-75
2021/08/28 10:18:07;;;;;;;4.23;3.00;;;19.10;99.90;;;;;;6125065;23;20397;-72
2021/08/28 10:20:36;;;;;;;3.20;2.07;;;19.20;99.90;;;;;;6124402;23;20397;-73
2021/08/28 10:23:05;;;;;;;2.40;2.03;;;19.20;99.90;;;;;;6125303;23;20407;-71
2021/08/28 10:25:36;;;;;;;2.30;2.10;;;19.10;99.90;;;;;;6124224;23;20493;-72
2021/08/28 10:28:06;;;;;;;2.07;1.90;;;19.10;99.90;;;;;;6125601;23;20908;-71
2021/08/28 10:30:35;;;;;;;3.17;2.40;;;19.10;99.90;;;;;;6125065;23;20472;-72
2021/08/28 10:33:03;;;;;;;2.57;2.37;;;18.90;99.90;;;;;;6125183;23;20436;-71
2021/08/28 10:35:31;;;;;;;4.30;3.10;;;18.90;99.90;;;;;;6124851;23;20515;-72
2021/08/28 10:38:01;;;;;;;4.57;3.13;;;18.90;99.90;;;;;;6123996;23;20476;-72
2021/08/28 10:57:31;;;;;;;5.20;3.27;;;18.50;99.90;;;;;;6154940;23;20451;-72
2021/08/28 11:00:07;;;;;;;4.33;2.97;;;18.50;99.90;;;;;;6153804;23;20385;-75
2021/08/28 11:02:58;;;;;;;3.00;2.70;;;18.50;99.90;;;;;;6154143;23;20399;-74
2021/08/28 11:05:27;;;;;;;3.47;2.50;;;18.60;99.90;;;;;;6144319;23;20515;-73
2021/08/28 11:08:16;;;;;;;13.20;12.20;;;18.60;99.90;;;;;;6125631;23;20460;-72
2021/08/28 11:10:44;;;;;;;2.43;2.23;;;18.40;99.90;;;;;;6125632;23;20437;-74
2021/08/28 11:13:12;;;;;;;3.63;2.90;;;18.40;99.90;;;;;;6125990;23;20394;-74
2021/08/28 11:18:56;;;;;;;2.20;2.00;;;18.50;99.90;;;;;;6125822;23;20373;-75
2021/08/28 11:21:23;;;;;;;3.67;2.60;;;19.00;99.90;;;;;;6099559;23;20412;-76
2021/08/28 11:23:53;;;;;;;3.20;2.57;;;19.60;99.90;;;;;;6125684;23;20400;-76
2021/08/28 11:26:42;;;;;;;3.37;3.07;;;20.10;99.90;;;;;;6125296;23;20427;-76
2021/08/28 11:29:43;;;;;;;;;;;;;;;;;;;;;
2021/08/28 11:32:13;;;;;;;2.20;1.93;;;21.10;99.90;;;;;;6124857;23;20536;-75
2021/08/28 11:34:43;;;;;;;3.17;2.10;;;21.50;99.90;;;;;;6125321;23;20451;-75
2021/08/28 11:37:41;;;;;;;5.80;3.90;;;21.70;99.90;;;;;;6127179;23;20492;-75
2021/08/28 11:40:28;;;;;;;3.83;2.80;;;21.70;99.90;;;;;;6125511;23;20397;-76
2021/08/28 11:42:55;;;;;;;2.77;2.47;;;21.60;99.90;;;;;;6125345;23;20399;-76
2021/08/28 11:45:36;;;;;;;2.20;1.80;;;21.50;99.90;;;;;;6123744;23;20808;-75
2021/08/28 11:48:11;;;;;;;2.43;1.90;;;21.30;99.90;;;;;;6124837;23;20393;-74
2021/08/28 11:50:43;;;;;;;2.93;2.10;;;21.20;99.90;;;;;;6124001;23;20388;-73
2021/08/28 11:53:11;;;;;;;3.63;3.23;;;20.90;99.90;;;;;;6125337;23;20423;-73
2021/08/28 11:55:38;;;;;;;3.53;3.10;;;20.70;99.90;;;;;;6124513;23;20440;-73
2021/08/28 11:58:08;;;;;;;5.93;4.00;;;20.70;99.90;;;;;;6124888;23;20404;-72
2021/08/28 12:00:37;;;;;;;5.10;4.23;;;20.50;99.90;;;;;;6124928;23;20397;-71
2021/08/28 12:03:07;;;;;;;10.83;3.60;;;20.20;99.90;;;;;;6127411;23;20781;-72
2021/08/28 12:05:36;;;;;;;3.37;3.07;;;19.90;99.90;;;;;;6125479;23;20901;-70
2021/08/28 12:08:03;;;;;;;3.60;3.07;;;19.50;99.90;;;;;;6127016;23;20712;-73
2021/08/28 12:10:32;;;;;;;6.53;3.50;;;19.30;99.90;;;;;;6126535;23;20730;-69
2021/08/28 12:13:01;;;;;;;4.87;4.37;;;19.00;99.90;;;;;;6126432;23;20405;-73
2021/08/28 12:15:30;;;;;;;5.53;4.80;;;18.80;99.90;;;;;;6125913;23;20447;-73
2021/08/28 12:17:59;;;;;;;4.53;4.10;;;18.70;99.90;;;;;;6126657;23;20400;-71
2021/08/28 12:20:29;;;;;;;7.23;5.03;;;18.70;99.90;;;;;;6126522;23;20401;-73
2021/08/28 12:22:59;;;;;;;5.17;4.67;;;18.60;99.90;;;;;;6126979;23;20402;-73
2021/08/28 12:25:27;;;;;;;5.47;4.97;;;18.50;99.90;;;;;;6125215;23;20421;-70
2021/08/28 12:28:06;;;;;;;5.97;5.43;;;18.50;99.90;;;;;;6125224;23;20404;-74
2021/08/28 12:30:33;;;;;;;6.40;5.17;;;18.50;99.90;;;;;;6125447;23;20424;-72
2021/08/28 12:33:10;;;;;;;5.87;5.23;;;18.50;99.90;;;;;;6125738;23;20432;-76
2021/08/28 12:35:38;;;;;;;7.00;6.37;;;18.40;99.90;;;;;;6124326;23;20449;-72
2021/08/28 12:38:15;;;;;;;6.40;5.53;;;18.40;99.90;;;;;;6126856;23;20488;-73
2021/08/28 12:40:42;;;;;;;5.60;5.10;;;18.50;99.90;;;;;;6100302;23;20401;-73
2021/08/28 12:43:10;;;;;;;10.43;7.70;;;18.60;99.90;;;;;;6125775;23;20402;-74
2021/08/28 12:45:39;;;;;;;7.60;6.83;;;18.70;99.90;;;;;;6125024;23;20514;-73
2021/08/28 12:48:08;;;;;;;6.67;5.97;;;18.90;99.90;;;;;;6124798;23;20408;-75
2021/08/28 12:50:36;;;;;;;8.33;5.70;;;18.80;99.90;;;;;;6126686;23;20398;-75
2021/08/28 12:53:07;;;;;;;7.70;6.23;;;19.10;99.90;;;;;;6125964;23;20430;-75
2021/08/28 12:55:34;;;;;;;6.10;5.50;;;19.30;99.90;;;;;;6125575;23;20449;-75
2021/08/28 12:58:03;;;;;;;6.33;5.73;;;19.40;99.90;;;;;;6126427;23;20859;-75
2021/08/28 13:00:32;;;;;;;9.53;5.70;;;19.50;99.90;;;;;;6126408;23;20394;-75
2021/08/28 13:02:59;;;;;;;7.93;5.33;;;19.50;99.90;;;;;;6126603;23;20397;-75
2021/08/28 13:05:29;;;;;;;7.73;5.20;;;19.40;99.90;;;;;;6125454;23;20945;-74
2021/08/28 13:07:58;;;;;;;5.37;4.77;;;19.20;99.90;;;;;;6126697;23;20415;-74
2021/08/28 13:10:29;;;;;;;4.90;4.40;;;19.00;99.90;;;;;;6125875;23;20405;-72
2021/08/28 13:12:58;;;;;;;8.00;4.97;;;18.90;99.90;;;;;;6126061;23;20740;-73